sensor_id;sensor_type;location;lat;lon;timestamp;P1;durP1;ratioP1;P2;durP2;ratioP2
12208;SDS011;6167;43.080;25.634;2023-06-14T00:00:56;8.02;;;7.22;;
12208;SDS011;6167;43.080;25.634;2023-06-14T00:03:23;13.68;;;7.57;;
12208;SDS011;6167;43.080;25.634;2023-06-14T00:05:51;8.65;;;6.97;;
12208;SDS011;6167;43.080;25.634;2023-06-14T00:08:17;8.38;;;7.50;;
12208;SDS011;6167;43.080;25.634;2023-06-14T00:10:46;9.75;;;7.43;;
12208;SDS011;6167;43.080;25.634;2023-06-14T00:13:13;9.77;;;7.53;;
12208;SDS011;6167;43.080;25.634;2023-06-14T00:15:41;8.30;;;7.47;;
12208;SDS011;6167;43.080;25.634;2023-06-14T00:18:08;7.78;;;6.85;;
12208;SDS011;6167;43.080;25.634;2023-06-14T00:20:36;8.02;;;7.05;;
12208;SDS011;6167;43.080;25.634;2023-06-14T00:23:04;10.15;;;7.40;;
12208;SDS011;6167;43.080;25.634;2023-06-14T00:25:31;9.05;;;6.82;;
12208;SDS011;6167;43.080;25.634;2023-06-14T00:27:57;7.78;;;6.90;;
12208;SDS011;6167;43.080;25.634;2023-06-14T00:30:24;9.40;;;6.68;;
12208;SDS011;6167;43.080;25.634;2023-06-14T00:32:57;8.15;;;7.03;;
12208;SDS011;6167;43.080;25.634;2023-06-14T00:35:23;9.10;;;7.28;;
12208;SDS011;6167;43.080;25.634;2023-06-14T00:37:50;8.43;;;7.53;;
12208;SDS011;6167;43.080;25.634;2023-06-14T00:40:17;9.20;;;8.30;;
12208;SDS011;6167;43.080;25.634;2023-06-14T00:42:43;9.63;;;8.60;;
12208;SDS011;6167;43.080;25.634;2023-06-14T00:45:10;9.60;;;7.93;;
12208;SDS011;6167;43.080;25.634;2023-06-14T00:47:37;9.60;;;8.30;;
12208;SDS011;6167;43.080;25.634;2023-06-14T00:50:08;9.18;;;7.85;;
12208;SDS011;6167;43.080;25.634;2023-06-14T00:52:35;8.50;;;7.80;;
12208;SDS011;6167;43.080;25.634;2023-06-14T00:55:02;8.93;;;8.02;;
12208;SDS011;6167;43.080;25.634;2023-06-14T00:57:28;9.48;;;8.32;;
12208;SDS011;6167;43.080;25.634;2023-06-14T00:59:55;8.93;;;7.80;;
12208;SDS011;6167;43.080;25.634;2023-06-14T01:02:22;11.57;;;8.23;;
12208;SDS011;6167;43.080;25.634;2023-06-14T01:04:49;9.23;;;8.23;;
12208;SDS011;6167;43.080;25.634;2023-06-14T01:07:20;11.00;;;8.75;;
12208;SDS011;6167;43.080;25.634;2023-06-14T01:09:55;9.43;;;8.52;;
12208;SDS011;6167;43.080;25.634;2023-06-14T01:12:27;10.95;;;9.00;;
12208;SDS011;6167;43.080;25.634;2023-06-14T01:14:57;9.30;;;8.50;;
12208;SDS011;6167;43.080;25.634;2023-06-14T01:17:26;11.48;;;8.40;;
12208;SDS011;6167;43.080;25.634;2023-06-14T01:19:57;11.45;;;8.48;;
12208;SDS011;6167;43.080;25.634;2023-06-14T01:22:26;10.52;;;8.80;;
12208;SDS011;6167;43.080;25.634;2023-06-14T01:24:55;10.15;;;8.00;;
12208;SDS011;6167;43.080;25.634;2023-06-14T01:27:23;9.25;;;8.18;;
12208;SDS011;6167;43.080;25.634;2023-06-14T01:29:53;10.80;;;9.57;;
12208;SDS011;6167;43.080;25.634;2023-06-14T01:32:21;10.82;;;8.60;;
12208;SDS011;6167;43.080;25.634;2023-06-14T01:34:48;10.85;;;9.80;;
12208;SDS011;6167;43.080;25.634;2023-06-14T01:37:15;10.82;;;9.73;;
12208;SDS011;6167;43.080;25.634;2023-06-14T01:39:42;10.48;;;9.25;;
12208;SDS011;6167;43.080;25.634;2023-06-14T01:42:11;10.30;;;9.30;;
12208;SDS011;6167;43.080;25.634;2023-06-14T01:44:39;12.25;;;9.55;;
12208;SDS011;6167;43.080;25.634;2023-06-14T01:47:06;10.55;;;9.48;;
12208;SDS011;6167;43.080;25.634;2023-06-14T01:49:33;11.00;;;9.90;;
12208;SDS011;6167;43.080;25.634;2023-06-14T01:52:00;11.55;;;10.43;;
12208;SDS011;6167;43.080;25.634;2023-06-14T01:54:27;12.10;;;9.65;;
12208;SDS011;6167;43.080;25.634;2023-06-14T01:56:54;10.13;;;9.02;;
12208;SDS011;6167;43.080;25.634;2023-06-14T01:59:22;10.35;;;9.35;;
12208;SDS011;6167;43.080;25.634;2023-06-14T02:01:49;12.48;;;10.57;;
12208;SDS011;6167;43.080;25.634;2023-06-14T02:04:16;10.93;;;9.63;;
12208;SDS011;6167;43.080;25.634;2023-06-14T02:06:43;10.43;;;9.32;;
12208;SDS011;6167;43.080;25.634;2023-06-14T02:09:09;10.48;;;9.57;;
12208;SDS011;6167;43.080;25.634;2023-06-14T02:11:36;10.35;;;9.05;;
12208;SDS011;6167;43.080;25.634;2023-06-14T02:14:02;9.63;;;8.80;;
12208;SDS011;6167;43.080;25.634;2023-06-14T02:16:30;10.18;;;8.95;;
12208;SDS011;6167;43.080;25.634;2023-06-14T02:18:57;9.20;;;8.13;;
12208;SDS011;6167;43.080;25.634;2023-06-14T02:21:24;12.63;;;9.55;;
12208;SDS011;6167;43.080;25.634;2023-06-14T02:23:51;10.15;;;9.25;;
12208;SDS011;6167;43.080;25.634;2023-06-14T02:26:18;12.02;;;10.82;;
12208;SDS011;6167;43.080;25.634;2023-06-14T02:28:44;12.02;;;10.70;;
12208;SDS011;6167;43.080;25.634;2023-06-14T02:31:11;12.02;;;10.02;;
12208;SDS011;6167;43.080;25.634;2023-06-14T02:33:39;11.38;;;10.18;;
12208;SDS011;6167;43.080;25.634;2023-06-14T02:36:05;11.55;;;10.25;;
12208;SDS011;6167;43.080;25.634;2023-06-14T02:38:32;12.00;;;10.90;;
12208;SDS011;6167;43.080;25.634;2023-06-14T02:40:59;13.60;;;11.35;;
12208;SDS011;6167;43.080;25.634;2023-06-14T02:43:26;11.20;;;10.10;;
12208;SDS011;6167;43.080;25.634;2023-06-14T02:45:53;12.95;;;11.32;;
12208;SDS011;6167;43.080;25.634;2023-06-14T02:48:19;12.80;;;11.02;;
12208;SDS011;6167;43.080;25.634;2023-06-14T02:50:48;12.25;;;11.02;;
12208;SDS011;6167;43.080;25.634;2023-06-14T02:53:15;12.38;;;11.10;;
12208;SDS011;6167;43.080;25.634;2023-06-14T02:55:42;10.50;;;8.50;;
12208;SDS011;6167;43.080;25.634;2023-06-14T02:58:09;14.68;;;9.85;;
12208;SDS011;6167;43.080;25.634;2023-06-14T03:00:36;12.32;;;11.18;;
12208;SDS011;6167;43.080;25.634;2023-06-14T03:03:03;12.40;;;10.40;;
12208;SDS011;6167;43.080;25.634;2023-06-14T03:05:37;10.43;;;9.38;;
12208;SDS011;6167;43.080;25.634;2023-06-14T03:08:07;10.35;;;9.32;;
12208;SDS011;6167;43.080;25.634;2023-06-14T03:10:34;9.88;;;8.90;;
12208;SDS011;6167;43.080;25.634;2023-06-14T03:13:04;13.40;;;9.18;;
12208;SDS011;6167;43.080;25.634;2023-06-14T03:15:32;12.77;;;9.75;;
12208;SDS011;6167;43.080;25.634;2023-06-14T03:17:58;10.27;;;9.23;;
12208;SDS011;6167;43.080;25.634;2023-06-14T03:20:25;11.52;;;10.00;;
12208;SDS011;6167;43.080;25.634;2023-06-14T03:22:54;11.43;;;9.57;;
12208;SDS011;6167;43.080;25.634;2023-06-14T03:25:22;11.55;;;10.15;;
12208;SDS011;6167;43.080;25.634;2023-06-14T03:27:48;10.77;;;9.52;;
12208;SDS011;6167;43.080;25.634;2023-06-14T03:30:15;11.93;;;9.75;;
12208;SDS011;6167;43.080;25.634;2023-06-14T03:32:42;16.08;;;10.25;;
12208;SDS011;6167;43.080;25.634;2023-06-14T03:35:08;11.52;;;9.77;;
12208;SDS011;6167;43.080;25.634;2023-06-14T03:37:42;11.60;;;9.18;;
12208;SDS011;6167;43.080;25.634;2023-06-14T03:40:08;9.40;;;8.23;;
12208;SDS011;6167;43.080;25.634;2023-06-14T03:42:36;9.10;;;7.97;;
12208;SDS011;6167;43.080;25.634;2023-06-14T03:45:03;9.50;;;8.60;;
12208;SDS011;6167;43.080;25.634;2023-06-14T03:47:30;9.38;;;8.57;;
12208;SDS011;6167;43.080;25.634;2023-06-14T03:49:57;10.40;;;9.18;;
12208;SDS011;6167;43.080;25.634;2023-06-14T03:52:23;13.20;;;9.90;;
12208;SDS011;6167;43.080;25.634;2023-06-14T03:54:50;10.65;;;9.75;;
12208;SDS011;6167;43.080;25.634;2023-06-14T03:57:16;12.75;;;9.52;;
12208;SDS011;6167;43.080;25.634;2023-06-14T03:59:44;10.48;;;9.50;;
12208;SDS011;6167;43.080;25.634;2023-06-14T04:02:12;14.55;;;10.23;;
12208;SDS011;6167;43.080;25.634;2023-06-14T04:04:41;12.15;;;10.90;;
12208;SDS011;6167;43.080;25.634;2023-06-14T04:07:10;12.25;;;10.15;;
12208;SDS011;6167;43.080;25.634;2023-06-14T04:09:36;11.77;;;10.57;;
12208;SDS011;6167;43.080;25.634;2023-06-14T04:12:04;11.05;;;9.90;;
12208;SDS011;6167;43.080;25.634;2023-06-14T04:14:31;18.08;;;16.30;;
12208;SDS011;6167;43.080;25.634;2023-06-14T04:16:59;12.60;;;10.35;;
12208;SDS011;6167;43.080;25.634;2023-06-14T04:19:26;12.77;;;10.85;;
12208;SDS011;6167;43.080;25.634;2023-06-14T04:21:53;14.02;;;11.88;;
12208;SDS011;6167;43.080;25.634;2023-06-14T04:24:20;14.80;;;12.90;;
12208;SDS011;6167;43.080;25.634;2023-06-14T04:26:48;13.30;;;12.10;;
12208;SDS011;6167;43.080;25.634;2023-06-14T04:29:16;14.43;;;12.38;;
12208;SDS011;6167;43.080;25.634;2023-06-14T04:31:44;15.25;;;12.27;;
12208;SDS011;6167;43.080;25.634;2023-06-14T04:34:13;14.80;;;13.40;;
12208;SDS011;6167;43.080;25.634;2023-06-14T04:36:41;15.13;;;13.55;;
12208;SDS011;6167;43.080;25.634;2023-06-14T04:39:14;15.55;;;13.00;;
12208;SDS011;6167;43.080;25.634;2023-06-14T04:41:42;15.43;;;13.80;;
12208;SDS011;6167;43.080;25.634;2023-06-14T04:44:09;15.80;;;14.18;;
12208;SDS011;6167;43.080;25.634;2023-06-14T04:46:36;16.67;;;14.63;;
12208;SDS011;6167;43.080;25.634;2023-06-14T04:49:12;16.77;;;14.65;;
12208;SDS011;6167;43.080;25.634;2023-06-14T04:51:39;16.10;;;14.50;;
12208;SDS011;6167;43.080;25.634;2023-06-14T04:54:06;15.85;;;14.20;;
12208;SDS011;6167;43.080;25.634;2023-06-14T04:56:35;15.07;;;13.48;;
12208;SDS011;6167;43.080;25.634;2023-06-14T04:59:02;16.00;;;14.38;;
12208;SDS011;6167;43.080;25.634;2023-06-14T05:01:29;18.10;;;13.23;;
12208;SDS011;6167;43.080;25.634;2023-06-14T05:03:56;15.77;;;13.10;;
12208;SDS011;6167;43.080;25.634;2023-06-14T05:06:25;13.57;;;12.18;;
12208;SDS011;6167;43.080;25.634;2023-06-14T05:08:52;14.65;;;12.27;;
12208;SDS011;6167;43.080;25.634;2023-06-14T05:11:19;15.43;;;12.18;;
12208;SDS011;6167;43.080;25.634;2023-06-14T05:13:49;13.90;;;12.43;;
12208;SDS011;6167;43.080;25.634;2023-06-14T05:16:16;15.07;;;13.50;;
12208;SDS011;6167;43.080;25.634;2023-06-14T05:18:44;13.70;;;12.32;;
12208;SDS011;6167;43.080;25.634;2023-06-14T05:21:13;14.88;;;12.40;;
12208;SDS011;6167;43.080;25.634;2023-06-14T05:23:44;13.07;;;11.88;;
12208;SDS011;6167;43.080;25.634;2023-06-14T05:26:11;12.98;;;11.80;;
12208;SDS011;6167;43.080;25.634;2023-06-14T05:28:38;12.48;;;11.23;;
12208;SDS011;6167;43.080;25.634;2023-06-14T05:31:08;14.20;;;11.73;;
12208;SDS011;6167;43.080;25.634;2023-06-14T05:33:34;12.02;;;10.73;;
12208;SDS011;6167;43.080;25.634;2023-06-14T05:36:01;12.13;;;10.93;;
12208;SDS011;6167;43.080;25.634;2023-06-14T05:38:28;12.55;;;11.35;;
12208;SDS011;6167;43.080;25.634;2023-06-14T05:40:55;12.23;;;11.02;;
12208;SDS011;6167;43.080;25.634;2023-06-14T05:43:22;12.15;;;10.95;;
12208;SDS011;6167;43.080;25.634;2023-06-14T05:45:51;13.10;;;11.82;;
12208;SDS011;6167;43.080;25.634;2023-06-14T05:48:18;14.27;;;11.93;;
12208;SDS011;6167;43.080;25.634;2023-06-14T05:50:44;14.48;;;11.88;;
12208;SDS011;6167;43.080;25.634;2023-06-14T05:53:12;12.55;;;11.43;;
12208;SDS011;6167;43.080;25.634;2023-06-14T05:55:38;13.45;;;12.05;;
12208;SDS011;6167;43.080;25.634;2023-06-14T05:58:07;13.43;;;11.93;;
12208;SDS011;6167;43.080;25.634;2023-06-14T06:00:33;15.45;;;11.40;;
12208;SDS011;6167;43.080;25.634;2023-06-14T06:03:00;17.77;;;14.10;;
12208;SDS011;6167;43.080;25.634;2023-06-14T06:05:26;21.67;;;16.20;;
12208;SDS011;6167;43.080;25.634;2023-06-14T06:07:53;23.92;;;18.63;;
12208;SDS011;6167;43.080;25.634;2023-06-14T06:10:19;15.40;;;13.80;;
12208;SDS011;6167;43.080;25.634;2023-06-14T06:12:46;16.40;;;14.70;;
12208;SDS011;6167;43.080;25.634;2023-06-14T06:15:15;15.13;;;13.73;;
12208;SDS011;6167;43.080;25.634;2023-06-14T06:17:42;13.38;;;11.95;;
12208;SDS011;6167;43.080;25.634;2023-06-14T06:20:10;14.75;;;12.50;;
12208;SDS011;6167;43.080;25.634;2023-06-14T06:22:37;14.18;;;12.65;;
12208;SDS011;6167;43.080;25.634;2023-06-14T06:25:05;13.13;;;11.88;;
12208;SDS011;6167;43.080;25.634;2023-06-14T06:27:33;14.43;;;12.20;;
12208;SDS011;6167;43.080;25.634;2023-06-14T06:30:01;16.55;;;11.73;;
12208;SDS011;6167;43.080;25.634;2023-06-14T06:32:29;14.30;;;12.80;;
12208;SDS011;6167;43.080;25.634;2023-06-14T06:34:56;13.40;;;11.95;;
12208;SDS011;6167;43.080;25.634;2023-06-14T06:37:24;16.42;;;12.10;;
12208;SDS011;6167;43.080;25.634;2023-06-14T06:39:51;13.32;;;11.15;;
12208;SDS011;6167;43.080;25.634;2023-06-14T06:42:18;15.63;;;10.98;;
12208;SDS011;6167;43.080;25.634;2023-06-14T06:44:46;13.27;;;11.25;;
12208;SDS011;6167;43.080;25.634;2023-06-14T06:47:13;12.18;;;10.93;;
12208;SDS011;6167;43.080;25.634;2023-06-14T06:49:41;14.25;;;11.27;;
12208;SDS011;6167;43.080;25.634;2023-06-14T06:52:08;14.23;;;11.45;;
12208;SDS011;6167;43.080;25.634;2023-06-14T06:54:34;13.75;;;12.40;;
12208;SDS011;6167;43.080;25.634;2023-06-14T06:57:04;14.73;;;10.93;;
12208;SDS011;6167;43.080;25.634;2023-06-14T06:59:31;16.10;;;11.65;;
12208;SDS011;6167;43.080;25.634;2023-06-14T07:01:58;13.35;;;11.77;;
12208;SDS011;6167;43.080;25.634;2023-06-14T07:04:24;14.07;;;12.05;;
12208;SDS011;6167;43.080;25.634;2023-06-14T07:06:53;13.13;;;11.45;;
12208;SDS011;6167;43.080;25.634;2023-06-14T07:09:19;11.90;;;10.80;;
12208;SDS011;6167;43.080;25.634;2023-06-14T07:11:50;14.43;;;11.13;;
12208;SDS011;6167;43.080;25.634;2023-06-14T07:14:17;12.50;;;10.60;;
12208;SDS011;6167;43.080;25.634;2023-06-14T07:16:44;13.55;;;10.60;;
12208;SDS011;6167;43.080;25.634;2023-06-14T07:19:11;16.52;;;12.90;;
12208;SDS011;6167;43.080;25.634;2023-06-14T07:21:38;13.38;;;11.10;;
12208;SDS011;6167;43.080;25.634;2023-06-14T07:24:07;12.10;;;11.02;;
12208;SDS011;6167;43.080;25.634;2023-06-14T07:26:34;12.73;;;11.48;;
12208;SDS011;6167;43.080;25.634;2023-06-14T07:29:00;12.35;;;11.15;;
12208;SDS011;6167;43.080;25.634;2023-06-14T07:31:27;13.23;;;12.02;;
12208;SDS011;6167;43.080;25.634;2023-06-14T07:33:54;12.32;;;11.23;;
12208;SDS011;6167;43.080;25.634;2023-06-14T07:36:21;13.00;;;11.82;;
12208;SDS011;6167;43.080;25.634;2023-06-14T07:38:48;13.30;;;11.93;;
12208;SDS011;6167;43.080;25.634;2023-06-14T07:41:16;13.00;;;11.80;;
12208;SDS011;6167;43.080;25.634;2023-06-14T07:43:43;13.90;;;12.70;;
12208;SDS011;6167;43.080;25.634;2023-06-14T07:46:09;14.05;;;12.77;;
12208;SDS011;6167;43.080;25.634;2023-06-14T07:48:36;14.05;;;12.93;;
12208;SDS011;6167;43.080;25.634;2023-06-14T07:51:03;13.38;;;12.23;;
12208;SDS011;6167;43.080;25.634;2023-06-14T07:53:30;15.63;;;14.23;;
12208;SDS011;6167;43.080;25.634;2023-06-14T07:55:57;16.85;;;14.25;;
12208;SDS011;6167;43.080;25.634;2023-06-14T07:58:25;16.60;;;14.63;;
12208;SDS011;6167;43.080;25.634;2023-06-14T08:00:51;14.90;;;13.65;;
12208;SDS011;6167;43.080;25.634;2023-06-14T08:03:18;14.80;;;13.40;;
12208;SDS011;6167;43.080;25.634;2023-06-14T08:05:45;13.05;;;11.85;;
12208;SDS011;6167;43.080;25.634;2023-06-14T08:08:12;13.68;;;12.48;;
12208;SDS011;6167;43.080;25.634;2023-06-14T08:10:39;12.93;;;11.68;;
12208;SDS011;6167;43.080;25.634;2023-06-14T08:13:05;12.38;;;11.18;;
12208;SDS011;6167;43.080;25.634;2023-06-14T08:15:33;12.52;;;11.32;;
12208;SDS011;6167;43.080;25.634;2023-06-14T08:18:00;12.48;;;11.15;;
12208;SDS011;6167;43.080;25.634;2023-06-14T08:20:27;11.25;;;10.25;;
12208;SDS011;6167;43.080;25.634;2023-06-14T08:22:55;11.45;;;10.25;;
12208;SDS011;6167;43.080;25.634;2023-06-14T08:25:22;10.13;;;9.13;;
12208;SDS011;6167;43.080;25.634;2023-06-14T08:27:48;10.23;;;9.43;;
12208;SDS011;6167;43.080;25.634;2023-06-14T08:30:15;10.43;;;9.43;;
12208;SDS011;6167;43.080;25.634;2023-06-14T08:32:44;11.88;;;9.82;;
12208;SDS011;6167;43.080;25.634;2023-06-14T08:35:11;10.95;;;9.85;;
12208;SDS011;6167;43.080;25.634;2023-06-14T08:37:38;11.73;;;10.63;;
12208;SDS011;6167;43.080;25.634;2023-06-14T08:40:07;10.93;;;9.88;;
12208;SDS011;6167;43.080;25.634;2023-06-14T08:42:39;10.02;;;9.13;;
12208;SDS011;6167;43.080;25.634;2023-06-14T08:45:06;10.38;;;9.48;;
12208;SDS011;6167;43.080;25.634;2023-06-14T08:47:33;9.68;;;8.88;;
12208;SDS011;6167;43.080;25.634;2023-06-14T08:50:03;10.00;;;9.00;;
12208;SDS011;6167;43.080;25.634;2023-06-14T08:52:34;9.50;;;8.07;;
12208;SDS011;6167;43.080;25.634;2023-06-14T08:55:06;8.63;;;7.90;;
12208;SDS011;6167;43.080;25.634;2023-06-14T08:57:34;9.38;;;8.02;;
12208;SDS011;6167;43.080;25.634;2023-06-14T09:00:03;8.25;;;7.43;;
12208;SDS011;6167;43.080;25.634;2023-06-14T09:02:37;11.27;;;8.88;;
12208;SDS011;6167;43.080;25.634;2023-06-14T09:05:10;9.73;;;8.02;;
12208;SDS011;6167;43.080;25.634;2023-06-14T09:07:38;8.98;;;8.18;;
12208;SDS011;6167;43.080;25.634;2023-06-14T09:10:06;8.85;;;7.53;;
12208;SDS011;6167;43.080;25.634;2023-06-14T09:12:34;11.20;;;7.53;;
12208;SDS011;6167;43.080;25.634;2023-06-14T09:15:01;8.50;;;7.70;;
12208;SDS011;6167;43.080;25.634;2023-06-14T09:17:31;7.45;;;6.80;;
12208;SDS011;6167;43.080;25.634;2023-06-14T09:19:58;7.32;;;6.63;;
12208;SDS011;6167;43.080;25.634;2023-06-14T09:22:27;10.40;;;8.77;;
12208;SDS011;6167;43.080;25.634;2023-06-14T09:24:55;8.85;;;7.55;;
12208;SDS011;6167;43.080;25.634;2023-06-14T09:27:22;8.20;;;7.50;;
12208;SDS011;6167;43.080;25.634;2023-06-14T09:29:48;7.95;;;7.25;;
12208;SDS011;6167;43.080;25.634;2023-06-14T09:32:15;8.70;;;7.82;;
12208;SDS011;6167;43.080;25.634;2023-06-14T09:34:41;6.72;;;6.20;;
12208;SDS011;6167;43.080;25.634;2023-06-14T09:37:08;7.45;;;6.60;;
12208;SDS011;6167;43.080;25.634;2023-06-14T09:39:36;10.77;;;7.95;;
12208;SDS011;6167;43.080;25.634;2023-06-14T09:42:16;6.68;;;6.03;;
12208;SDS011;6167;43.080;25.634;2023-06-14T09:44:44;6.63;;;5.90;;
12208;SDS011;6167;43.080;25.634;2023-06-14T09:47:11;7.15;;;6.53;;
12208;SDS011;6167;43.080;25.634;2023-06-14T09:49:40;7.72;;;6.68;;
12208;SDS011;6167;43.080;25.634;2023-06-14T09:52:13;8.02;;;7.25;;
12208;SDS011;6167;43.080;25.634;2023-06-14T09:54:43;7.47;;;6.60;;
12208;SDS011;6167;43.080;25.634;2023-06-14T09:57:11;6.72;;;6.00;;
12208;SDS011;6167;43.080;25.634;2023-06-14T09:59:39;7.10;;;6.32;;
12208;SDS011;6167;43.080;25.634;2023-06-14T10:02:09;6.93;;;6.43;;
12208;SDS011;6167;43.080;25.634;2023-06-14T10:04:38;6.65;;;6.07;;
12208;SDS011;6167;43.080;25.634;2023-06-14T10:07:06;6.32;;;5.82;;
12208;SDS011;6167;43.080;25.634;2023-06-14T10:09:33;6.05;;;5.55;;
12208;SDS011;6167;43.080;25.634;2023-06-14T10:12:02;5.88;;;5.30;;
12208;SDS011;6167;43.080;25.634;2023-06-14T10:14:30;6.72;;;5.68;;
12208;SDS011;6167;43.080;25.634;2023-06-14T10:17:00;6.85;;;5.82;;
12208;SDS011;6167;43.080;25.634;2023-06-14T10:19:31;6.20;;;5.68;;
12208;SDS011;6167;43.080;25.634;2023-06-14T10:22:04;6.53;;;5.90;;
12208;SDS011;6167;43.080;25.634;2023-06-14T10:24:35;12.55;;;6.78;;
12208;SDS011;6167;43.080;25.634;2023-06-14T10:27:07;24.58;;;6.93;;
12208;SDS011;6167;43.080;25.634;2023-06-14T10:29:41;6.18;;;5.57;;
12208;SDS011;6167;43.080;25.634;2023-06-14T10:32:27;8.32;;;6.03;;
12208;SDS011;6167;43.080;25.634;2023-06-14T10:34:55;4.97;;;4.57;;
12208;SDS011;6167;43.080;25.634;2023-06-14T10:37:22;4.85;;;4.45;;
12208;SDS011;6167;43.080;25.634;2023-06-14T10:39:49;4.95;;;4.57;;
12208;SDS011;6167;43.080;25.634;2023-06-14T10:42:18;6.60;;;6.07;;
12208;SDS011;6167;43.080;25.634;2023-06-14T10:44:45;6.95;;;5.80;;
12208;SDS011;6167;43.080;25.634;2023-06-14T10:47:25;7.78;;;7.07;;
12208;SDS011;6167;43.080;25.634;2023-06-14T10:49:53;6.35;;;5.72;;
12208;SDS011;6167;43.080;25.634;2023-06-14T10:52:25;7.57;;;5.75;;
12208;SDS011;6167;43.080;25.634;2023-06-14T10:54:59;5.95;;;5.40;;
12208;SDS011;6167;43.080;25.634;2023-06-14T10:57:28;5.30;;;4.80;;
12208;SDS011;6167;43.080;25.634;2023-06-14T10:59:56;5.10;;;4.60;;
12208;SDS011;6167;43.080;25.634;2023-06-14T11:02:43;5.60;;;5.10;;
12208;SDS011;6167;43.080;25.634;2023-06-14T11:05:14;6.93;;;4.50;;
12208;SDS011;6167;43.080;25.634;2023-06-14T11:07:43;6.35;;;4.13;;
12208;SDS011;6167;43.080;25.634;2023-06-14T11:10:15;4.70;;;4.18;;
12208;SDS011;6167;43.080;25.634;2023-06-14T11:12:47;4.85;;;4.07;;
12208;SDS011;6167;43.080;25.634;2023-06-14T11:15:14;6.45;;;4.47;;
12208;SDS011;6167;43.080;25.634;2023-06-14T11:17:49;9.77;;;4.20;;
12208;SDS011;6167;43.080;25.634;2023-06-14T11:20:16;4.68;;;4.28;;
12208;SDS011;6167;43.080;25.634;2023-06-14T11:22:43;4.05;;;3.58;;
12208;SDS011;6167;43.080;25.634;2023-06-14T11:25:10;4.40;;;4.00;;
12208;SDS011;6167;43.080;25.634;2023-06-14T11:27:37;4.57;;;4.18;;
12208;SDS011;6167;43.080;25.634;2023-06-14T11:30:07;4.25;;;3.92;;
12208;SDS011;6167;43.080;25.634;2023-06-14T11:32:34;5.10;;;4.60;;
12208;SDS011;6167;43.080;25.634;2023-06-14T11:35:02;5.15;;;4.68;;
12208;SDS011;6167;43.080;25.634;2023-06-14T11:37:30;5.95;;;5.38;;
12208;SDS011;6167;43.080;25.634;2023-06-14T11:39:58;5.75;;;5.18;;
12208;SDS011;6167;43.080;25.634;2023-06-14T11:42:26;9.13;;;5.80;;
12208;SDS011;6167;43.080;25.634;2023-06-14T11:44:53;8.30;;;5.90;;
12208;SDS011;6167;43.080;25.634;2023-06-14T11:47:21;6.10;;;5.53;;
12208;SDS011;6167;43.080;25.634;2023-06-14T11:49:49;6.28;;;5.68;;
12208;SDS011;6167;43.080;25.634;2023-06-14T11:52:18;5.65;;;4.95;;
12208;SDS011;6167;43.080;25.634;2023-06-14T11:54:47;5.07;;;4.60;;
12208;SDS011;6167;43.080;25.634;2023-06-14T11:57:14;5.07;;;4.65;;
12208;SDS011;6167;43.080;25.634;2023-06-14T11:59:41;6.38;;;4.57;;
12208;SDS011;6167;43.080;25.634;2023-06-14T12:02:09;5.20;;;4.78;;
12208;SDS011;6167;43.080;25.634;2023-06-14T12:04:38;5.85;;;5.18;;
12208;SDS011;6167;43.080;25.634;2023-06-14T12:07:10;5.15;;;4.72;;
12208;SDS011;6167;43.080;25.634;2023-06-14T12:09:40;4.55;;;4.25;;
12208;SDS011;6167;43.080;25.634;2023-06-14T12:12:08;4.82;;;4.20;;
12208;SDS011;6167;43.080;25.634;2023-06-14T12:14:36;5.20;;;4.70;;
12208;SDS011;6167;43.080;25.634;2023-06-14T12:17:07;5.53;;;5.03;;
12208;SDS011;6167;43.080;25.634;2023-06-14T12:19:45;5.95;;;3.55;;
12208;SDS011;6167;43.080;25.634;2023-06-14T12:22:14;4.60;;;4.20;;
12208;SDS011;6167;43.080;25.634;2023-06-14T12:24:42;8.35;;;4.30;;
12208;SDS011;6167;43.080;25.634;2023-06-14T12:27:09;4.90;;;4.40;;
12208;SDS011;6167;43.080;25.634;2023-06-14T12:29:37;4.28;;;3.90;;
12208;SDS011;6167;43.080;25.634;2023-06-14T12:32:04;5.13;;;4.72;;
12208;SDS011;6167;43.080;25.634;2023-06-14T12:34:31;4.53;;;4.00;;
12208;SDS011;6167;43.080;25.634;2023-06-14T12:37:00;4.10;;;3.80;;
12208;SDS011;6167;43.080;25.634;2023-06-14T12:39:26;6.65;;;5.97;;
12208;SDS011;6167;43.080;25.634;2023-06-14T12:41:54;5.43;;;4.72;;
12208;SDS011;6167;43.080;25.634;2023-06-14T12:44:24;3.92;;;3.63;;
12208;SDS011;6167;43.080;25.634;2023-06-14T12:46:50;3.85;;;3.55;;
12208;SDS011;6167;43.080;25.634;2023-06-14T12:49:19;5.57;;;5.05;;
12208;SDS011;6167;43.080;25.634;2023-06-14T12:51:47;6.00;;;3.67;;
12208;SDS011;6167;43.080;25.634;2023-06-14T12:54:15;4.18;;;3.85;;
12208;SDS011;6167;43.080;25.634;2023-06-14T12:56:42;5.63;;;4.20;;
12208;SDS011;6167;43.080;25.634;2023-06-14T12:59:10;5.95;;;4.53;;
12208;SDS011;6167;43.080;25.634;2023-06-14T13:01:37;4.32;;;3.67;;
12208;SDS011;6167;43.080;25.634;2023-06-14T13:04:04;5.07;;;3.72;;
12208;SDS011;6167;43.080;25.634;2023-06-14T13:06:31;4.93;;;3.78;;
12208;SDS011;6167;43.080;25.634;2023-06-14T13:08:58;5.57;;;4.95;;
12208;SDS011;6167;43.080;25.634;2023-06-14T13:11:26;4.28;;;3.92;;
12208;SDS011;6167;43.080;25.634;2023-06-14T13:13:53;3.80;;;3.50;;
12208;SDS011;6167;43.080;25.634;2023-06-14T13:16:20;4.00;;;3.70;;
12208;SDS011;6167;43.080;25.634;2023-06-14T13:18:47;4.03;;;3.70;;
12208;SDS011;6167;43.080;25.634;2023-06-14T13:21:14;4.97;;;3.63;;
12208;SDS011;6167;43.080;25.634;2023-06-14T13:23:41;3.83;;;3.53;;
12208;SDS011;6167;43.080;25.634;2023-06-14T13:26:07;4.65;;;3.90;;
12208;SDS011;6167;43.080;25.634;2023-06-14T13:28:36;5.22;;;4.10;;
12208;SDS011;6167;43.080;25.634;2023-06-14T13:31:03;4.05;;;3.70;;
12208;SDS011;6167;43.080;25.634;2023-06-14T13:33:30;4.35;;;3.88;;
12208;SDS011;6167;43.080;25.634;2023-06-14T13:35:58;5.22;;;3.83;;
12208;SDS011;6167;43.080;25.634;2023-06-14T13:38:25;5.95;;;3.63;;
12208;SDS011;6167;43.080;25.634;2023-06-14T13:40:52;4.40;;;4.00;;
12208;SDS011;6167;43.080;25.634;2023-06-14T13:43:18;4.15;;;3.80;;
12208;SDS011;6167;43.080;25.634;2023-06-14T13:45:46;5.47;;;3.55;;
12208;SDS011;6167;43.080;25.634;2023-06-14T13:48:13;4.20;;;3.80;;
12208;SDS011;6167;43.080;25.634;2023-06-14T13:50:40;3.63;;;3.33;;
12208;SDS011;6167;43.080;25.634;2023-06-14T13:53:07;4.47;;;4.07;;
12208;SDS011;6167;43.080;25.634;2023-06-14T13:55:33;5.20;;;3.92;;
12208;SDS011;6167;43.080;25.634;2023-06-14T13:58:00;4.35;;;3.95;;
12208;SDS011;6167;43.080;25.634;2023-06-14T14:00:27;4.60;;;4.20;;
12208;SDS011;6167;43.080;25.634;2023-06-14T14:02:55;4.10;;;3.80;;
12208;SDS011;6167;43.080;25.634;2023-06-14T14:05:22;4.30;;;3.92;;
12208;SDS011;6167;43.080;25.634;2023-06-14T14:07:53;3.97;;;3.67;;
12208;SDS011;6167;43.080;25.634;2023-06-14T14:10:20;6.20;;;4.00;;
12208;SDS011;6167;43.080;25.634;2023-06-14T14:12:50;4.70;;;4.28;;
12208;SDS011;6167;43.080;25.634;2023-06-14T14:15:18;5.93;;;5.43;;
12208;SDS011;6167;43.080;25.634;2023-06-14T14:17:45;4.32;;;4.03;;
12208;SDS011;6167;43.080;25.634;2023-06-14T14:20:13;6.38;;;4.80;;
12208;SDS011;6167;43.080;25.634;2023-06-14T14:22:41;4.50;;;4.10;;
12208;SDS011;6167;43.080;25.634;2023-06-14T14:25:08;5.88;;;4.10;;
12208;SDS011;6167;43.080;25.634;2023-06-14T14:27:35;5.72;;;5.13;;
12208;SDS011;6167;43.080;25.634;2023-06-14T14:30:03;8.20;;;5.30;;
12208;SDS011;6167;43.080;25.634;2023-06-14T14:32:30;4.80;;;4.38;;
12208;SDS011;6167;43.080;25.634;2023-06-14T14:34:57;4.82;;;4.40;;
12208;SDS011;6167;43.080;25.634;2023-06-14T14:37:25;4.32;;;4.03;;
12208;SDS011;6167;43.080;25.634;2023-06-14T14:39:52;5.50;;;5.00;;